Time;durP1;ratioP1;P1;durP2;ratioP2;P2;SDS_P1;SDS_P2;PMS_P1;PMS_P2;Temp;Humidity;BMP_temperature;BMP_pressure;BME280_temperature;BME280_humidity;BME280_pressure;Samples;Min_cycle;Max_cycle;Signal;HPM_P1;HPM_P2
2022/07/04 00:00:01;;;;;;;5.45;3.22;;;;;;;12.14;85.98;101988.69;5073445;28;20016;-70
2022/07/04 00:02:26;;;;;;;7.85;3.40;;;;;;;12.09;86.79;101987.84;5073496;28;20028;-70
2022/07/04 00:04:51;;;;;;;6.93;3.70;;;;;;;12.03;87.55;101980.94;5068489;28;20428;-70
2022/07/04 00:07:17;;;;;;;5.35;3.53;;;;;;;12.05;87.43;101975.72;5073912;28;20463;-70
2022/07/04 00:09:42;;;;;;;6.80;4.38;;;;;;;12.02;87.43;101980.97;5072835;28;20116;-70
2022/07/04 00:12:08;;;;;;;6.60;3.40;;;;;;;11.96;87.98;101984.50;5072393;28;20400;-70
2022/07/04 00:14:33;;;;;;;5.07;3.65;;;;;;;11.90;88.04;101988.06;5073067;28;20024;-70
2022/07/04 00:16:58;;;;;;;6.50;3.75;;;;;;;11.93;88.47;101976.69;5068510;28;20128;-70
2022/07/04 00:19:24;;;;;;;8.27;4.18;;;;;;;11.96;88.70;101984.50;5072490;28;20020;-70
2022/07/04 00:21:49;;;;;;;4.10;3.40;;;;;;;11.99;88.64;101967.94;5072277;28;20486;-70
2022/07/04 00:24:14;;;;;;;4.78;3.88;;;;;;;12.08;88.80;101980.91;5072679;28;20024;-70
2022/07/04 00:26:40;;;;;;;6.75;3.40;;;;;;;12.11;87.72;101973.03;5070853;28;20119;-70
2022/07/04 00:29:05;;;;;;;4.13;3.40;;;;;;;12.11;88.14;101973.03;5072112;28;20085;-70
2022/07/04 00:31:30;;;;;;;7.30;3.80;;;;;;;11.98;88.34;101963.59;5072564;28;20108;-70
2022/07/04 00:33:55;;;;;;;4.85;3.45;;;;;;;12.05;88.53;101973.97;5072618;28;20025;-70
2022/07/04 00:36:21;;;;;;;4.70;3.50;;;;;;;12.09;88.75;101980.88;5067664;28;20099;-70
2022/07/04 00:38:46;;;;;;;6.47;3.45;;;;;;;12.07;89.06;101972.22;5072033;28;20529;-70
2022/07/04 00:41:12;;;;;;;8.48;3.60;;;;;;;12.08;89.67;101973.94;5060252;28;20058;-70
2022/07/04 00:43:38;;;;;;;7.65;3.47;;;;;;;12.15;89.46;101977.34;5063774;28;20029;-70
2022/07/04 00:46:07;;;;;;;7.25;3.70;;;;;;;12.16;88.79;101976.44;5071510;28;20051;-70
2022/07/04 00:48:32;;;;;;;9.52;3.38;;;;;;;12.01;88.39;101968.81;5072166;28;20020;-70
2022/07/04 00:50:58;;;;;;;5.65;3.40;;;;;;;11.98;88.65;101974.91;5067964;28;20040;-70
2022/07/04 00:53:24;;;;;;;6.13;3.63;;;;;;;11.95;88.59;101978.44;5072952;28;20024;-70
2022/07/04 00:55:51;;;;;;;4.85;3.30;;;;;;;11.98;89.79;101974.06;5070517;28;20028;-70
2022/07/04 00:58:20;;;;;;;8.88;3.70;;;;;;;11.99;89.00;101973.16;5071663;28;20446;-70
2022/07/04 01:00:45;;;;;;;8.05;3.53;;;;;;;11.96;89.11;101971.44;5071004;28;20082;-70
2022/07/04 01:03:11;;;;;;;4.80;3.15;;;;;;;11.94;89.33;101974.09;5072766;28;20419;-70
2022/07/04 01:05:38;;;;;;;10.80;3.72;;;;;;;11.91;89.68;101970.66;5066562;28;20153;-70
2022/07/04 01:08:04;;;;;;;6.68;3.72;;;;;;;11.87;90.07;101975.03;5063620;28;20044;-70
2022/07/04 01:10:30;;;;;;;9.05;3.72;;;;;;;11.86;89.71;101964.59;5070643;28;20029;-70
2022/07/04 01:12:56;;;;;;;8.13;3.58;;;;;;;11.85;90.33;101949.81;5071151;28;20051;-70
2022/07/04 01:15:21;;;;;;;8.45;3.50;;;;;;;11.84;89.39;101964.63;5071221;28;20048;-70
2022/07/04 01:17:46;;;;;;;6.93;4.25;;;;;;;11.81;89.62;101961.16;5071981;28;20047;-70
2022/07/04 01:20:13;;;;;;;9.63;4.40;;;;;;;11.76;89.91;101958.56;5071663;28;20028;-70
2022/07/04 01:22:38;;;;;;;5.68;4.00;;;;;;;11.71;89.99;101948.19;5072017;28;20036;-70
2022/07/04 01:25:04;;;;;;;7.80;4.05;;;;;;;11.65;89.88;101953.47;5067865;28;20032;-70
2022/07/04 01:27:29;;;;;;;9.60;4.43;;;;;;;11.62;89.88;101948.28;5071345;28;20082;-70
2022/07/04 01:29:54;;;;;;;11.20;4.10;;;;;;;11.57;89.88;101946.56;5071911;28;20044;-70
2022/07/04 01:32:20;;;;;;;6.30;3.97;;;;;;;11.55;90.72;101940.53;5067949;28;20035;-70
2022/07/04 01:34:45;;;;;;;11.73;4.20;;;;;;;11.52;90.75;101945.78;5066735;28;20111;-70
2022/07/04 01:37:11;;;;;;;10.40;4.18;;;;;;;11.50;91.19;101943.16;5065499;28;20021;-70
2022/07/04 01:39:36;;;;;;;8.27;4.45;;;;;;;11.51;91.54;101944.91;5071682;28;20059;-70
2022/07/04 01:42:02;;;;;;;11.68;4.40;;;;;;;11.47;90.86;101940.56;5059055;28;20473;-69
2022/07/04 01:44:27;;;;;;;10.57;4.35;;;;;;;11.46;90.89;101937.09;5065673;28;20028;-70
2022/07/04 01:46:52;;;;;;;12.15;4.25;;;;;;;11.41;90.76;101930.19;5067708;28;20035;-70
2022/07/04 01:49:18;;;;;;;6.05;3.78;;;;;;;11.38;90.70;101928.50;5071099;28;20543;-70
2022/07/04 01:51:47;;;;;;;11.35;4.22;;;;;;;11.39;91.09;101927.59;5070596;28;20020;-70
2022/07/04 01:54:13;;;;;;;10.82;4.70;;;;;;;11.43;91.29;101933.66;5054987;28;20025;-70
2022/07/04 01:56:39;;;;;;;16.60;5.10;;;;;;;11.45;91.53;101930.16;5054295;28;20039;-70
2022/07/04 01:59:04;;;;;;;11.77;4.70;;;;;;;11.40;91.22;101924.09;5055538;28;20491;-69
2022/07/04 02:01:30;;;;;;;12.10;4.50;;;;;;;11.33;90.74;101917.22;5067359;28;20040;-70
2022/07/04 02:04:00;;;;;;;10.95;4.93;;;;;;;11.33;91.63;101919.81;5066801;28;20035;-70
2022/07/04 02:06:26;;;;;;;9.60;4.53;;;;;;;11.30;91.35;101921.59;5071992;28;20066;-70
2022/07/04 02:14:20;;;;;;;14.20;5.07;;;;;;;11.12;91.98;101926.13;5058888;28;20392;-70
2022/07/04 02:16:45;;;;;;;10.88;4.70;;;;;;;11.05;92.35;101926.16;5070508;28;20024;-70
2022/07/04 02:19:10;;;;;;;8.15;5.07;;;;;;;11.00;92.97;101919.25;5078123;28;20024;-70
2022/07/04 02:21:36;;;;;;;8.38;4.50;;;;;;;11.02;93.26;101922.72;5077176;28;20025;-70
2022/07/04 02:24:01;;;;;;;9.73;5.53;;;;;;;11.10;93.14;101920.03;5076278;28;20028;-70
2022/07/04 02:26:26;;;;;;;7.68;5.20;;;;;;;11.08;92.41;101924.38;5073235;28;20020;-70
2022/07/04 02:28:52;;;;;;;9.73;5.30;;;;;;;11.06;92.52;101925.31;5063803;28;20025;-70
2022/07/04 02:31:17;;;;;;;12.15;5.45;;;;;;;11.07;93.12;101927.03;5072050;28;20021;-70
2022/07/04 02:33:43;;;;;;;10.38;4.72;;;;;;;11.07;92.57;101932.25;5077090;28;20361;-70
2022/07/04 02:36:08;;;;;;;9.02;5.20;;;;;;;11.04;92.99;101925.28;5076952;28;20068;-70
2022/07/04 02:38:33;;;;;;;12.00;5.63;;;;;;;11.05;93.31;101928.78;5070576;28;20039;-70
2022/07/04 02:40:58;;;;;;;12.05;5.13;;;;;;;11.06;93.01;101941.81;5074217;28;20029;-70
2022/07/04 02:43:24;;;;;;;7.93;4.85;;;;;;;11.08;93.69;101934.81;5077502;28;20460;-70
2022/07/04 02:45:49;;;;;;;7.22;4.63;;;;;;;11.05;93.46;101937.47;5077628;28;20029;-69
2022/07/04 02:48:14;;;;;;;10.77;5.07;;;;;;;10.97;93.53;101929.69;5078064;28;20025;-70
2022/07/04 02:50:40;;;;;;;8.60;5.15;;;;;;;10.96;93.63;101930.59;5073339;28;20067;-70
2022/07/04 02:53:05;;;;;;;10.45;5.57;;;;;;;10.94;93.71;101928.84;5077015;28;20524;-70
2022/07/04 02:55:30;;;;;;;13.68;5.05;;;;;;;10.97;93.53;101932.31;5078222;28;20024;-70
2022/07/04 02:57:55;;;;;;;7.47;5.18;;;;;;;10.94;94.33;101936.69;5075370;28;20040;-69
2022/07/04 03:00:21;;;;;;;8.07;5.30;;;;;;;10.93;93.76;101938.44;5077146;28;20074;-69
2022/07/04 03:02:46;;;;;;;10.13;5.28;;;;;;;10.88;93.99;101937.59;5065323;28;20016;-70
2022/07/04 03:05:12;;;;;;;9.23;5.70;;;;;;;10.88;94.59;101947.16;5071162;28;20040;-70
2022/07/04 03:07:38;;;;;;;10.32;5.70;;;;;;;10.83;94.49;101952.44;5077622;28;20486;-69
2022/07/04 03:10:03;;;;;;;12.13;5.63;;;;;;;10.83;94.27;101948.97;5075980;28;20042;-69
2022/07/04 03:12:28;;;;;;;11.43;5.53;;;;;;;10.80;94.72;101955.06;5076261;28;20032;-70
2022/07/04 03:14:54;;;;;;;8.55;5.35;;;;;;;10.77;95.10;101955.06;5076504;28;20029;-69
2022/07/04 03:17:19;;;;;;;10.10;5.07;;;;;;;10.73;94.96;101962.06;5076869;28;20108;-69
2022/07/04 03:19:45;;;;;;;9.68;5.28;;;;;;;10.72;95.14;101960.28;5073478;28;20542;-70
2022/07/04 03:22:10;;;;;;;10.18;5.70;;;;;;;10.73;95.47;101962.06;5077567;28;20099;-70
2022/07/04 03:24:36;;;;;;;11.57;5.43;;;;;;;10.74;95.59;101958.56;5077719;28;20103;-70
2022/07/04 03:27:01;;;;;;;9.30;5.32;;;;;;;10.76;95.29;101963.78;5074776;28;20123;-70
2022/07/04 03:29:27;;;;;;;7.57;5.40;;;;;;;10.73;95.46;101961.19;5072901;28;20032;-69
2022/07/04 03:31:52;;;;;;;8.30;6.00;;;;;;;10.74;95.77;101970.75;5072128;28;20064;-69
2022/07/04 03:34:17;;;;;;;7.03;5.35;;;;;;;10.70;95.83;101971.66;5067168;28;20524;-70
2022/07/04 03:36:43;;;;;;;10.38;6.05;;;;;;;10.69;96.13;101975.09;5074088;28;20028;-69
2022/07/04 03:39:08;;;;;;;11.88;6.15;;;;;;;10.69;96.59;101977.72;5071224;28;20020;-70
2022/07/04 03:41:34;;;;;;;10.15;5.80;;;;;;;10.68;96.64;101973.38;5068418;28;20082;-69
2022/07/04 03:43:59;;;;;;;12.38;6.40;;;;;;;10.72;97.33;101981.16;5068585;28;20082;-69
2022/07/04 03:46:24;;;;;;;8.00;6.25;;;;;;;10.76;97.40;101988.13;5064026;28;20025;-69
2022/07/04 03:48:50;;;;;;;9.90;6.18;;;;;;;10.81;97.77;101989.81;5066392;28;20089;-70
2022/07/04 03:51:15;;;;;;;8.60;5.95;;;;;;;10.88;97.82;101994.97;5066407;28;20447;-70
2022/07/04 03:53:42;;;;;;;11.98;6.32;;;;;;;10.90;98.04;101993.25;5068182;28;20373;-69
2022/07/04 03:56:08;;;;;;;10.10;6.30;;;;;;;10.96;97.96;101984.53;5073955;28;20024;-69
2022/07/04 03:58:33;;;;;;;7.93;5.82;;;;;;;11.04;98.23;101993.16;5072922;28;20037;-70
2022/07/04 04:00:59;;;;;;;7.90;5.88;;;;;;;11.11;98.25;101991.34;5065229;28;20037;-69
2022/07/04 04:06:08;;;;;;;11.70;6.15;;;;;;;11.12;97.92;102008.78;5074207;28;20047;-69
2022/07/04 04:08:34;;;;;;;10.20;5.95;;;;;;;11.12;97.72;102000.94;5075260;28;20020;-70
2022/07/04 04:10:59;;;;;;;11.02;6.65;;;;;;;11.14;98.04;101999.16;5084159;28;20055;-69
2022/07/04 04:13:24;;;;;;;8.68;5.85;;;;;;;11.19;97.90;101989.56;5073824;28;20392;-69
2022/07/04 04:15:49;;;;;;;9.05;5.88;;;;;;;11.24;97.72;101996.47;5070114;28;20119;-69
2022/07/04 04:18:15;;;;;;;10.18;6.57;;;;;;;11.30;98.26;101992.94;5073546;28;20456;-70
2022/07/04 04:20:40;;;;;;;10.10;6.45;;;;;;;11.33;98.22;101994.69;5073512;28;20031;-70
2022/07/04 04:23:06;;;;;;;12.13;5.78;;;;;;;11.38;98.11;102006.81;5071976;28;20499;-70
2022/07/04 04:25:31;;;;;;;8.32;5.78;;;;;;;11.43;98.02;101999.81;5072692;28;20024;-69
2022/07/04 04:27:57;;;;;;;7.47;5.60;;;;;;;11.52;98.22;102011.06;5071292;28;20021;-70
2022/07/04 04:30:22;;;;;;;7.90;6.15;;;;;;;11.57;97.92;102014.47;5066625;28;20527;-70
2022/07/04 04:32:47;;;;;;;6.68;5.55;;;;;;;11.62;98.19;102017.94;5067184;28;20298;-70
2022/07/04 04:35:13;;;;;;;8.50;6.00;;;;;;;11.69;97.36;102028.28;5070578;28;20016;-70
2022/07/04 04:37:38;;;;;;;6.63;5.53;;;;;;;11.74;97.18;102025.66;5071627;28;20541;-70
2022/07/04 04:40:04;;;;;;;10.20;5.57;;;;;;;11.79;97.09;102023.00;5067842;28;20472;-70
2022/07/04 04:42:29;;;;;;;9.48;5.60;;;;;;;11.87;96.87;102029.03;5067630;28;20041;-69
2022/07/04 04:44:55;;;;;;;11.88;5.57;;;;;;;11.90;96.48;102022.06;5060426;28;20456;-69
2022/07/04 04:47:20;;;;;;;6.88;5.57;;;;;;;11.92;96.82;102019.41;5068921;28;20498;-70
2022/07/04 04:49:47;;;;;;;11.55;5.57;;;;;;;12.00;96.86;102017.59;5068652;28;20028;-70
2022/07/04 04:52:12;;;;;;;8.25;5.18;;;;;;;12.04;96.91;102018.44;5060762;28;20044;-70
2022/07/04 04:54:37;;;;;;;7.43;5.10;;;;;;;12.09;96.89;102003.53;5066435;28;20049;-70
2022/07/04 04:57:04;;;;;;;9.38;5.60;;;;;;;12.13;96.66;102006.13;5067768;28;20052;-69
2022/07/04 04:59:29;;;;;;;8.57;5.28;;;;;;;12.17;95.58;102005.19;5069312;28;20040;-70
2022/07/04 05:01:55;;;;;;;10.00;5.90;;;;;;;12.24;96.57;102011.22;5064654;28;20021;-70
2022/07/04 05:04:20;;;;;;;8.55;5.15;;;;;;;12.31;96.28;102007.63;5066594;28;20027;-70
2022/07/04 05:06:45;;;;;;;9.32;5.63;;;;;;;12.36;95.91;102003.22;5067085;28;20048;-70
2022/07/04 05:09:11;;;;;;;11.73;5.80;;;;;;;12.42;96.54;102004.88;5064449;28;20028;-70
2022/07/04 05:11:36;;;;;;;10.00;5.50;;;;;;;12.36;95.80;101977.09;5069865;28;20032;-70
2022/07/04 05:14:02;;;;;;;10.95;5.88;;;;;;;12.49;96.40;101995.22;5072347;28;20037;-70
2022/07/04 05:16:27;;;;;;;10.85;5.68;;;;;;;12.58;96.19;101995.94;5066258;28;20087;-69
2022/07/04 05:18:52;;;;;;;9.02;5.57;;;;;;;12.64;95.85;102001.09;5067947;28;20349;-70
2022/07/04 05:21:18;;;;;;;9.40;5.60;;;;;;;12.69;96.04;101987.97;5070424;28;20109;-70
2022/07/04 05:23:43;;;;;;;13.50;6.05;;;;;;;12.77;96.18;101995.72;5067870;28;20028;-70
2022/07/04 05:26:08;;;;;;;13.27;6.00;;;;;;;12.84;96.09;101997.34;5068589;28;20029;-70
2022/07/04 05:28:34;;;;;;;10.88;5.78;;;;;;;12.90;96.08;101992.03;5068635;28;20020;-70
2022/07/04 05:30:59;;;;;;;11.57;5.68;;;;;;;12.99;95.63;101986.66;5069348;28;20427;-70
2022/07/04 05:33:24;;;;;;;11.10;5.57;;;;;;;13.05;95.34;101998.81;5070213;28;20025;-70
2022/07/04 05:35:49;;;;;;;10.38;5.65;;;;;;;13.13;95.34;102002.16;5060082;28;20154;-70
2022/07/04 05:38:15;;;;;;;8.77;5.13;;;;;;;13.20;95.17;102000.28;5068168;28;20039;-70
2022/07/04 05:40:40;;;;;;;9.55;5.20;;;;;;;13.28;95.91;101994.09;5069475;28;20106;-70
2022/07/04 05:43:05;;;;;;;13.52;5.65;;;;;;;13.38;95.32;102007.03;5061944;28;20388;-69
2022/07/04 05:45:31;;;;;;;7.85;4.95;;;;;;;13.45;95.01;102008.66;5065405;28;20021;-70
2022/07/04 05:47:56;;;;;;;8.65;4.80;;;;;;;13.48;94.24;102000.75;5066380;28;20055;-70
2022/07/04 05:50:21;;;;;;;8.13;5.15;;;;;;;13.59;95.00;102009.28;5069671;28;20032;-70
2022/07/04 05:52:46;;;;;;;9.85;4.85;;;;;;;13.70;94.82;102004.72;5059459;28;20035;-70
2022/07/04 05:55:12;;;;;;;11.52;5.18;;;;;;;13.70;95.66;101996.88;5068020;28;20020;-70
2022/07/04 05:57:37;;;;;;;8.00;5.10;;;;;;;13.84;94.38;102008.84;5067960;28;20178;-70
2022/07/04 06:00:05;;;;;;;9.13;4.97;;;;;;;13.91;95.23;102002.59;5066426;28;20495;-70
2022/07/04 06:02:30;;;;;;;10.48;4.53;;;;;;;13.97;94.56;102015.59;5060472;28;20431;-70
2022/07/04 06:04:55;;;;;;;10.02;4.90;;;;;;;14.05;94.34;102009.28;5069488;28;20077;-70
2022/07/04 06:07:21;;;;;;;11.57;5.25;;;;;;;14.15;93.58;102011.75;5062049;28;20032;-70
2022/07/04 06:09:46;;;;;;;10.90;5.07;;;;;;;14.22;93.79;102014.22;5062927;28;20059;-70
2022/07/04 06:12:11;;;;;;;11.35;5.70;;;;;;;14.37;92.21;102015.66;5068106;28;20048;-70
2022/07/04 06:14:36;;;;;;;7.13;5.20;;;;;;;14.48;92.83;102004.94;5070068;28;20032;-70
2022/07/04 06:17:02;;;;;;;6.65;4.32;;;;;;;14.61;92.82;102013.44;5069539;28;20062;-70
2022/07/04 06:19:27;;;;;;;11.35;5.00;;;;;;;14.69;92.20;102015.03;5070888;28;20358;-70
2022/07/04 06:21:53;;;;;;;10.80;5.50;;;;;;;14.83;91.73;102008.59;5069578;28;20028;-70
2022/07/04 06:24:18;;;;;;;11.15;5.63;;;;;;;14.99;88.63;102012.59;5069866;28;20024;-70
2022/07/04 06:26:43;;;;;;;9.48;5.22;;;;;;;15.13;90.33;102020.13;5068703;28;20033;-70
2022/07/04 06:29:09;;;;;;;11.18;5.10;;;;;;;15.21;88.90;102026.09;5067971;28;20020;-70
2022/07/04 06:31:34;;;;;;;11.52;4.90;;;;;;;15.11;88.37;102025.44;5069970;28;20518;-70
2022/07/04 06:36:45;;;;;;;6.47;4.00;;;;;;;14.95;90.53;102009.19;5068283;28;20047;-70
2022/07/04 06:39:10;;;;;;;8.88;4.53;;;;;;;15.02;89.15;102014.28;5070736;28;20074;-70
2022/07/04 06:41:35;;;;;;;8.30;4.13;;;;;;;15.08;88.90;102022.03;5068312;28;20028;-70
2022/07/04 06:44:01;;;;;;;6.18;4.03;;;;;;;15.18;88.61;102018.28;5063615;28;20028;-70
2022/07/04 06:46:26;;;;;;;9.32;4.07;;;;;;;15.36;87.19;102012.56;5066661;28;20029;-70
2022/07/04 06:48:51;;;;;;;8.68;4.03;;;;;;;15.56;86.89;102009.44;5069472;28;20029;-70
2022/07/04 06:51:17;;;;;;;9.50;4.22;;;;;;;15.83;84.71;102022.81;5068507;28;20059;-70
2022/07/04 06:53:42;;;;;;;8.48;4.53;;;;;;;16.09;85.14;102025.59;5077969;28;20036;-70
2022/07/04 06:56:08;;;;;;;6.85;3.95;;;;;;;16.42;83.12;102022.06;5070907;28;20162;-70
2022/07/04 06:58:33;;;;;;;9.10;4.18;;;;;;;16.71;81.26;102029.06;5062941;28;20510;-70
2022/07/04 07:00:58;;;;;;;6.80;4.82;;;;;;;16.78;77.02;102009.59;5064009;28;20035;-75
2022/07/04 07:03:23;;;;;;;8.52;4.22;;;;;;;16.66;80.53;102015.19;5059671;28;20513;-76
2022/07/04 07:05:49;;;;;;;7.20;3.78;;;;;;;16.46;79.50;102000.00;5074586;28;20081;-77
2022/07/04 07:08:14;;;;;;;10.77;4.07;;;;;;;16.31;80.17;102001.28;5089748;28;20391;-76
2022/07/04 07:10:39;;;;;;;10.07;4.60;;;;;;;16.31;80.38;102001.28;5074015;28;20460;-77
2022/07/04 07:13:05;;;;;;;9.55;4.55;;;;;;;16.22;81.61;101996.28;5062336;28;20035;-77
2022/07/04 07:15:31;;;;;;;8.38;4.63;;;;;;;16.26;82.27;102004.06;5056255;28;20021;-77
2022/07/04 07:17:57;;;;;;;7.75;4.40;;;;;;;16.44;83.00;102007.06;5055339;28;20036;-77
2022/07/04 07:20:22;;;;;;;6.22;4.35;;;;;;;16.68;80.97;102000.22;5056230;28;20022;-77
2022/07/04 07:22:47;;;;;;;8.13;4.60;;;;;;;16.95;79.95;101993.25;5059978;28;20395;-76
2022/07/04 07:25:13;;;;;;;7.50;5.10;;;;;;;17.12;76.61;101990.94;5058623;28;20457;-76
2022/07/04 07:27:40;;;;;;;8.10;4.53;;;;;;;17.33;76.87;101997.28;5059324;28;20611;-76
2022/07/04 07:30:06;;;;;;;9.27;3.67;;;;;;;17.31;74.52;101996.47;5068355;28;20024;-76
2022/07/04 07:32:32;;;;;;;6.45;2.78;;;;;;;17.30;74.13;101997.38;5063906;28;20031;-77
2022/07/04 07:34:57;;;;;;;5.47;2.88;;;;;;;17.35;75.50;102013.91;5058045;28;20469;-77
2022/07/04 07:37:22;;;;;;;7.10;2.58;;;;;;;17.52;70.22;102011.53;5054161;28;20385;-77
2022/07/04 07:39:48;;;;;;;4.63;2.40;;;;;;;17.46;71.66;102009.16;5053018;28;20184;-77
2022/07/04 07:42:14;;;;;;;6.38;3.97;;;;;;;17.20;72.01;102014.38;5053431;28;20029;-76
2022/07/04 07:44:39;;;;;;;5.78;2.35;;;;;;;16.98;73.72;102016.88;5053613;28;20024;-77
2022/07/04 07:47:05;;;;;;;5.50;2.00;;;;;;;16.99;72.17;102010.69;5058194;28;20074;-77
2022/07/04 07:49:30;;;;;;;4.15;1.90;;;;;;;17.07;74.21;102012.19;5055029;28;20074;-77
2022/07/04 07:51:56;;;;;;;4.93;1.83;;;;;;;17.15;70.90;101998.75;5053367;28;20044;-77
2022/07/04 07:54:21;;;;;;;5.07;2.28;;;;;;;17.24;70.56;102002.88;5056054;28;20082;-77
2022/07/04 07:56:46;;;;;;;5.03;1.83;;;;;;;17.34;73.10;101995.50;5062603;28;20049;-77
2022/07/04 07:59:12;;;;;;;4.13;2.17;;;;;;;17.41;70.85;101994.38;5053761;28;20413;-77
2022/07/04 08:01:37;;;;;;;4.47;2.08;;;;;;;17.49;70.13;101990.59;5056743;28;20476;-77
2022/07/04 08:06:46;;;;;;;4.20;2.05;;;;;;;17.63;70.47;101976.06;5068892;28;20036;-78
2022/07/04 08:09:14;;;;;;;5.45;1.98;;;;;;;17.80;69.11;101984.28;5069538;28;20032;-77
2022/07/04 08:11:39;;;;;;;4.03;1.90;;;;;;;17.85;70.57;101986.72;5066951;28;20086;-77
2022/07/04 08:14:06;;;;;;;5.57;2.00;;;;;;;17.91;70.35;101991.78;5070573;28;20060;-78
2022/07/04 08:16:31;;;;;;;3.70;1.88;;;;;;;17.96;65.52;101989.88;5071163;28;20039;-78
2022/07/04 08:18:57;;;;;;;6.88;2.70;;;;;;;18.01;65.75;101991.41;5070916;28;20020;-78
2022/07/04 08:21:22;;;;;;;5.75;2.28;;;;;;;18.11;66.50;101993.69;5073117;28;20013;-77
2022/07/04 08:23:47;;;;;;;10.88;2.45;;;;;;;18.11;66.37;101984.00;5071448;28;20047;-78
2022/07/04 08:26:13;;;;;;;3.42;1.85;;;;;;;18.25;66.44;102002.00;5072876;28;20028;-78
2022/07/04 08:28:38;;;;;;;5.10;1.80;;;;;;;18.33;68.16;102001.69;5058441;28;20492;-78
2022/07/04 08:31:04;;;;;;;7.22;1.90;;;;;;;18.43;65.93;102011.84;5073084;28;20025;-78
2022/07/04 08:33:29;;;;;;;3.13;2.20;;;;;;;18.56;66.08;102017.53;5073606;28;20024;-78
2022/07/04 08:35:54;;;;;;;4.40;2.28;;;;;;;18.64;65.60;102009.31;5057058;28;20460;-78
2022/07/04 08:38:20;;;;;;;4.80;1.88;;;;;;;18.70;63.16;102009.06;5069511;28;20039;-78
2022/07/04 08:40:47;;;;;;;5.13;1.90;;;;;;;18.75;61.92;101998.38;5072510;28;20162;-78
2022/07/04 08:43:14;;;;;;;4.30;2.03;;;;;;;18.87;65.46;102006.66;5070451;28;20033;-78
2022/07/04 08:45:40;;;;;;;4.28;1.80;;;;;;;18.98;65.04;102008.88;5066517;28;20064;-78
2022/07/04 08:48:09;;;;;;;6.80;1.95;;;;;;;19.12;66.88;102009.16;5067278;28;20107;-77
2022/07/04 08:50:42;;;;;;;3.53;1.77;;;;;;;19.22;64.85;102014.06;5071992;28;20385;-77
2022/07/04 08:53:13;;;;;;;5.80;2.00;;;;;;;19.35;68.06;102017.94;5068593;28;20021;-78
2022/07/04 08:58:30;;;;;;;5.45;1.90;;;;;;;19.56;66.35;102009.13;5061069;28;20094;-79
2022/07/04 09:01:03;;;;;;;4.43;1.83;;;;;;;19.62;64.02;102010.66;5072524;28;20024;-78
2022/07/04 09:03:29;;;;;;;;;;;;;;;19.74;65.42;102020.72;5069502;28;20033;-78
2022/07/04 09:05:56;;;;;;;4.65;2.22;;;;;;;19.79;60.04;102010.78;5053551;28;19912;-78
2022/07/04 09:08:22;;;;;;;6.68;2.10;;;;;;;19.87;63.50;102011.31;5061534;28;20021;-78
2022/07/04 09:10:48;;;;;;;6.72;2.33;;;;;;;19.96;63.25;102011.84;5049993;28;20027;-78
2022/07/04 09:13:14;;;;;;;4.53;1.73;;;;;;;20.05;63.60;102001.72;5053275;28;20619;-78
2022/07/04 09:15:42;;;;;;;6.60;2.10;;;;;;;20.20;61.27;101997.50;5051843;28;20049;-78
2022/07/04 09:18:25;;;;;;;3.17;1.90;;;;;;;20.31;62.15;102003.16;5051716;28;20029;-78
2022/07/04 09:20:51;;;;;;;;;;;;;;;20.41;61.64;102002.75;5052228;28;20028;-78
2022/07/04 09:23:19;;;;;;;4.68;1.77;;;;;;;20.54;62.30;102003.94;5054176;28;20285;-78
2022/07/04 09:25:45;;;;;;;6.15;1.98;;;;;;;20.70;59.95;101998.75;5057560;28;20484;-78
2022/07/04 09:28:10;;;;;;;7.25;2.00;;;;;;;20.87;61.02;101997.97;5057093;28;20106;-78
2022/07/04 09:30:47;;;;;;;4.30;1.60;;;;;;;21.07;60.21;101996.97;5052856;28;20032;-79
2022/07/04 09:33:13;;;;;;;4.45;1.35;;;;;;;21.20;57.36;101992.78;5056224;28;20044;-79
2022/07/04 09:35:38;;;;;;;4.28;1.80;;;;;;;21.36;61.61;101998.22;5055472;28;20400;-78
2022/07/04 09:38:04;;;;;;;3.92;1.25;;;;;;;21.54;58.06;102005.22;5054289;28;20017;-77
2022/07/04 09:43:23;;;;;;;4.82;1.90;;;;;;;21.93;56.55;102002.28;5056835;28;20052;-76
2022/07/04 09:46:00;;;;;;;3.97;1.50;;;;;;;21.80;57.12;102000.38;5062833;28;20028;-77
2022/07/04 09:48:26;;;;;;;6.28;1.92;;;;;;;21.51;58.33;102000.06;5052499;28;20025;-77
2022/07/04 09:50:51;;;;;;;7.90;1.80;;;;;;;21.52;55.11;101996.50;5050836;28;20025;-77
2022/07/04 09:53:17;;;;;;;3.00;1.40;;;;;;;21.68;54.00;101994.78;5060916;28;20021;-77
2022/07/04 09:55:45;;;;;;;4.35;1.20;;;;;;;21.89;55.88;101991.94;5051165;28;20400;-77
2022/07/04 09:58:15;;;;;;;4.97;1.73;;;;;;;21.76;54.78;101996.16;5051592;28;20049;-78
2022/07/04 10:00:43;;;;;;;3.45;1.40;;;;;;;21.83;54.87;102001.06;5051001;28;20385;-77
2022/07/04 10:03:17;;;;;;;2.13;1.20;;;;;;;22.25;52.77;101997.09;5052994;28;20037;-77
2022/07/04 10:05:44;;;;;;;3.85;1.63;;;;;;;22.47;52.46;101994.13;5064410;28;20028;-77
2022/07/04 10:08:10;;;;;;;4.68;1.52;;;;;;;22.42;51.80;101993.50;5065209;28;20119;-77
2022/07/04 10:10:40;;;;;;;5.95;1.60;;;;;;;22.55;52.63;101999.00;5068912;28;20115;-78
2022/07/04 10:13:07;;;;;;;6.90;1.30;;;;;;;22.57;53.72;101999.78;5059964;28;20051;-77
2022/07/04 10:15:38;;;;;;;5.70;1.63;;;;;;;22.63;53.58;102002.97;5069864;28;20384;-78
2022/07/04 10:18:05;;;;;;;6.40;1.75;;;;;;;22.53;55.02;101998.22;5067537;28;20056;-78
2022/07/04 10:20:30;;;;;;;7.22;1.63;;;;;;;22.36;53.20;101988.53;5075915;28;20024;-78
2022/07/04 10:22:57;;;;;;;7.45;1.95;;;;;;;22.35;53.11;101989.47;5070644;28;20021;-77
2022/07/04 10:25:22;;;;;;;6.18;1.42;;;;;;;21.96;53.17;101974.72;5073173;28;20475;-77
2022/07/04 10:27:50;;;;;;;6.40;1.55;;;;;;;21.56;54.67;101984.78;5070495;28;20027;-78
2022/07/04 10:30:21;;;;;;;3.58;1.33;;;;;;;21.15;57.07;101985.03;5071517;28;20032;-78
2022/07/04 10:32:48;;;;;;;4.10;1.77;;;;;;;20.97;59.35;101988.63;5071211;28;20051;-78
2022/07/04 10:35:15;;;;;;;4.32;2.00;;;;;;;21.26;55.02;101985.38;5071921;28;20028;-78
2022/07/04 10:38:04;;;;;;;4.40;1.60;;;;;;;21.66;55.92;101983.38;5073337;28;20055;-78
2022/07/04 10:40:45;;;;;;;5.68;1.95;;;;;;;22.10;54.00;101968.66;5073122;28;20024;-78
2022/07/04 10:43:37;;;;;;;4.80;1.88;;;;;;;22.44;54.17;101976.56;5073347;28;20405;-77
2022/07/04 10:46:02;;;;;;;9.75;2.10;;;;;;;22.61;49.75;101972.09;5065316;28;20032;-78
2022/07/04 10:48:28;;;;;;;4.25;1.58;;;;;;;23.02;52.49;101974.19;5074851;28;20035;-78
2022/07/04 10:51:05;;;;;;;3.10;1.70;;;;;;;23.25;53.68;101967.53;5074609;28;20115;-78
2022/07/04 10:53:31;;;;;;;8.88;1.92;;;;;;;23.25;48.11;101963.09;5062759;28;20057;-77
2022/07/04 10:56:14;;;;;;;4.93;1.80;;;;;;;23.32;51.19;101963.59;5055034;28;20040;-77
2022/07/04 10:58:42;;;;;;;4.25;1.98;;;;;;;23.23;52.09;101953.50;5062351;28;20032;-77
2022/07/04 11:01:11;;;;;;;3.33;1.60;;;;;;;23.54;50.45;101958.69;5060444;28;20036;-77
2022/07/04 11:03:47;;;;;;;3.65;2.00;;;;;;;23.93;51.57;101954.53;5059403;28;20031;-78
2022/07/04 11:06:35;;;;;;;4.32;1.90;;;;;;;24.36;49.97;101951.88;5067938;28;20036;-76
2022/07/04 11:09:16;;;;;;;2.65;1.80;;;;;;;24.18;49.91;101959.19;5068251;28;20102;-77
2022/07/04 11:12:01;;;;;;;3.28;1.73;;;;;;;23.89;49.55;101957.50;5061077;28;20028;-77
2022/07/04 11:14:45;;;;;;;5.18;1.75;;;;;;;23.46;51.31;101960.94;5068110;28;20020;-78
2022/07/04 11:17:19;;;;;;;4.03;1.60;;;;;;;23.27;52.52;101955.88;5069443;28;20086;-77
2022/07/04 11:19:45;;;;;;;4.78;1.58;;;;;;;23.70;49.13;101953.31;5068191;28;20032;-77
2022/07/04 11:22:10;;;;;;;6.35;2.10;;;;;;;24.26;49.50;101951.59;5068684;28;20893;-77
2022/07/04 11:24:38;;;;;;;3.45;1.60;;;;;;;24.82;48.26;101948.91;5065537;28;20051;-77
2022/07/04 11:27:04;;;;;;;6.45;1.70;;;;;;;25.29;44.18;101950.22;5070762;28;20452;-78
2022/07/04 11:29:30;;;;;;;4.18;1.77;;;;;;;25.53;44.68;101949.47;5069141;28;20583;-78
2022/07/04 11:31:56;;;;;;;6.30;2.08;;;;;;;25.81;44.95;101935.94;5068136;28;20032;-78
2022/07/04 11:34:23;;;;;;;4.88;1.83;;;;;;;25.74;40.55;101937.31;5061192;28;20029;-77
2022/07/04 11:36:50;;;;;;;4.68;1.90;;;;;;;25.75;44.81;101932.81;5065202;28;20024;-78
2022/07/04 11:39:20;;;;;;;2.45;1.40;;;;;;;26.34;45.00;101941.06;5066643;28;20021;-77